createdAt,value
2017-09-11T00:00:20.356Z,15.17
2017-09-11T00:01:20.023Z,15.11
2017-09-11T00:02:20.662Z,15.09
2017-09-11T00:03:20.320Z,15.08
2017-09-11T00:04:20.308Z,15.09
2017-09-11T00:05:20.300Z,15.06
2017-09-11T00:06:20.273Z,15.17
2017-09-11T00:07:19.946Z,15.12
2017-09-11T00:08:20.249Z,15.09
2017-09-11T00:09:20.560Z,15.06
2017-09-11T00:10:20.542Z,15.09
2017-09-11T00:11:20.207Z,15.13
2017-09-11T00:12:19.905Z,15.17
2017-09-11T00:13:20.187Z,15.09
2017-09-11T00:14:20.168Z,15.13
2017-09-11T00:15:19.841Z,15.13
2017-09-11T00:16:19.819Z,15.11
2017-09-11T00:17:20.130Z,15.11
2017-09-11T00:18:20.436Z,15.15
2017-09-11T00:19:20.103Z,15.15
2017-09-11T00:20:20.111Z,15.17
2017-09-11T00:21:19.756Z,15.2
2017-09-11T00:22:19.739Z,15.21
2017-09-11T00:23:20.247Z,15.24
2017-09-11T00:24:20.355Z,15.2
2017-09-11T00:25:20.040Z,15.23
2017-09-11T00:26:20.002Z,15.21
2017-09-11T00:27:20.308Z,15.17
2017-09-11T00:28:19.979Z,15.24
2017-09-11T00:29:19.971Z,15.26
2017-09-11T00:30:19.952Z,15.24
2017-09-11T00:31:19.941Z,15.24
2017-09-11T00:32:19.928Z,15.19
2017-09-11T00:33:19.912Z,15.26
2017-09-11T00:34:19.902Z,15.3
2017-09-11T00:35:19.565Z,15.24
2017-09-11T00:36:19.882Z,15.31
2017-09-11T00:37:19.853Z,15.31
2017-09-11T00:38:20.163Z,15.33
2017-09-11T00:39:19.506Z,15.33
2017-09-11T00:40:19.512Z,15.28
2017-09-11T00:41:19.491Z,15.33
2017-09-11T00:42:20.113Z,15.38
2017-09-11T00:43:19.779Z,15.38
2017-09-11T00:44:19.761Z,15.39
2017-09-11T00:45:19.430Z,15.33
2017-09-11T00:46:19.429Z,15.3
2017-09-11T00:47:19.731Z,15.39
2017-09-11T00:48:19.387Z,15.28
2017-09-11T00:49:19.699Z,15.28
2017-09-11T00:50:19.684Z,15.3
2017-09-11T00:51:19.358Z,15.2
2017-09-11T00:52:19.973Z,15.21
2017-09-11T00:53:19.327Z,15.31
2017-09-11T00:54:19.959Z,15.3
2017-09-11T00:55:19.940Z,15.28
2017-09-11T00:56:19.605Z,15.23
2017-09-11T00:57:19.961Z,15.24
2017-09-11T00:58:19.575Z,15.27
2017-09-11T00:59:19.565Z,15.3
2017-09-11T01:00:19.550Z,15.3
2017-09-11T01:01:19.856Z,15.3
2017-09-11T01:02:19.521Z,15.26
2017-09-11T01:03:19.514Z,15.3
2017-09-11T01:04:19.818Z,15.33
2017-09-11T01:05:19.804Z,15.33
2017-09-11T01:06:19.795Z,15.28
2017-09-11T01:07:19.468Z,15.35
2017-09-11T01:08:19.452Z,15.46
2017-09-11T01:09:19.748Z,15.45
2017-09-11T01:10:19.100Z,15.41
2017-09-11T01:11:19.402Z,15.39
2017-09-11T01:12:19.710Z,15.39
2017-09-11T01:13:19.056Z,15.43
2017-09-11T01:14:19.689Z,15.33
2017-09-11T01:15:19.671Z,15.36
2017-09-11T01:16:19.335Z,15.46
2017-09-11T01:17:19.330Z,15.43
2017-09-11T01:18:19.631Z,15.39
2017-09-11T01:19:18.978Z,15.43
2017-09-11T01:20:19.292Z,15.36
2017-09-11T01:21:19.272Z,15.48
2017-09-11T01:22:19.265Z,15.43
2017-09-11T01:23:19.246Z,15.45
2017-09-11T01:24:19.547Z,15.48
2017-09-11T01:25:19.221Z,15.43
2017-09-11T01:26:18.882Z,15.43
2017-09-11T01:27:19.203Z,15.43
2017-09-11T01:28:19.187Z,15.54
2017-09-11T01:29:19.488Z,15.45
2017-09-11T01:30:19.480Z,15.46
2017-09-11T01:31:19.145Z,15.46
2017-09-11T01:32:19.445Z,15.48
2017-09-11T01:33:19.114Z,15.41
2017-09-11T01:34:19.095Z,15.45
2017-09-11T01:35:19.425Z,15.45
2017-09-11T01:36:19.408Z,15.41
2017-09-11T01:37:19.060Z,15.39
2017-09-11T01:38:18.759Z,15.31
2017-09-11T01:39:18.713Z,15.43
2017-09-11T01:40:19.027Z,15.36
2017-09-11T01:41:19.005Z,15.31
2017-09-11T01:42:19.314Z,15.41
2017-09-11T01:43:18.658Z,15.31
2017-09-11T01:44:18.961Z,15.36
2017-09-11T01:45:18.948Z,15.35
2017-09-11T01:46:18.933Z,15.3
2017-09-11T01:47:19.251Z,15.27
2017-09-11T01:48:19.239Z,15.26
2017-09-11T01:49:18.897Z,15.21
2017-09-11T01:50:18.561Z,15.21
2017-09-11T01:51:18.557Z,15.24
2017-09-11T01:52:19.174Z,15.13
2017-09-11T01:53:18.847Z,15.09
2017-09-11T01:54:19.159Z,15.17
2017-09-11T01:55:18.498Z,15.12
2017-09-11T01:56:19.124Z,15.15
2017-09-11T01:57:18.782Z,15.12
2017-09-11T01:58:19.101Z,15.09
2017-09-11T01:59:18.762Z,15.09
2017-09-11T02:00:18.745Z,15.13
2017-09-11T02:01:18.412Z,15.09
2017-09-11T02:02:18.716Z,15.06
2017-09-11T02:03:18.383Z,15.09
2017-09-11T02:04:18.701Z,15.08
2017-09-11T02:05:18.684Z,15.09
2017-09-11T02:06:18.666Z,15.11
2017-09-11T02:07:18.654Z,15.06
2017-09-11T02:08:18.640Z,15.11
2017-09-11T02:09:18.624Z,15.05
2017-09-11T02:10:18.933Z,15.09
2017-09-11T02:11:18.921Z,15.03
2017-09-11T02:12:18.272Z,15.06
2017-09-11T02:13:18.571Z,15.08
2017-09-11T02:14:18.877Z,14.99
2017-09-11T02:15:18.543Z,14.99
2017-09-11T02:16:18.534Z,14.99
2017-09-11T02:17:18.512Z,14.99
2017-09-11T02:18:18.508Z,15.05
2017-09-11T02:19:18.490Z,15.02
2017-09-11T02:20:18.474Z,14.95
2017-09-11T02:21:18.788Z,15.03
2017-09-11T02:22:18.772Z,14.95
2017-09-11T02:23:18.641Z,15.02
2017-09-11T02:24:18.110Z,15.05
2017-09-11T02:25:18.419Z,14.95
2017-09-11T02:26:18.395Z,14.91
2017-09-11T02:27:18.382Z,14.95
2017-09-11T02:28:18.372Z,14.94
2017-09-11T02:29:18.709Z,15.01
2017-09-11T02:30:18.668Z,14.95
2017-09-11T02:31:18.659Z,14.91
2017-09-11T02:32:18.513Z,14.93
2017-09-11T02:33:18.617Z,14.94
2017-09-11T02:34:17.968Z,14.98
2017-09-11T02:35:18.289Z,14.99
2017-09-11T02:36:18.252Z,14.93
2017-09-11T02:37:18.253Z,14.93
2017-09-11T02:38:18.584Z,15.02
2017-09-11T02:39:18.536Z,14.98
2017-09-11T02:40:18.211Z,15.02
2017-09-11T02:41:18.186Z,15.06
2017-09-11T02:42:18.180Z,15.03
2017-09-11T02:43:18.484Z,15.03
2017-09-11T02:44:18.472Z,14.99
2017-09-11T02:45:18.458Z,15.02
2017-09-11T02:46:17.803Z,15.01
2017-09-11T02:47:18.145Z,14.98
2017-09-11T02:48:17.780Z,15.05
2017-09-11T02:49:18.085Z,15.02
2017-09-11T02:50:18.068Z,15.01
2017-09-11T02:51:18.381Z,15.08
2017-09-11T02:52:18.366Z,15.09
2017-09-11T02:53:18.024Z,15.06
2017-09-11T02:54:18.335Z,15.05
2017-09-11T02:55:17.672Z,15.12
2017-09-11T02:56:17.664Z,15.03
2017-09-11T02:57:17.979Z,15.06
2017-09-11T02:58:17.972Z,15.11
2017-09-11T02:59:18.276Z,15.12
2017-09-11T03:00:17.934Z,15.11
2017-09-11T03:01:17.923Z,15.05
2017-09-11T03:02:17.916Z,15.08
2017-09-11T03:03:17.894Z,15.17
2017-09-11T03:04:17.880Z,15.12
2017-09-11T03:05:17.544Z,15.08
2017-09-11T03:06:18.178Z,15.13
2017-09-11T03:07:18.161Z,15.13
2017-09-11T03:08:18.177Z,15.17
2017-09-11T03:09:18.147Z,15.15
2017-09-11T03:10:17.797Z,15.09
2017-09-11T03:11:18.134Z,15.09
2017-09-11T03:12:18.092Z,15.13
2017-09-11T03:13:17.765Z,15.13
2017-09-11T03:14:17.743Z,15.2
2017-09-11T03:15:17.729Z,15.13
2017-09-11T03:16:17.716Z,15.13
2017-09-11T03:17:18.030Z,15.17
2017-09-11T03:18:17.362Z,15.21
2017-09-11T03:19:17.350Z,15.17
2017-09-11T03:20:17.657Z,15.15
2017-09-11T03:21:17.659Z,15.21
2017-09-11T03:22:17.310Z,15.2
2017-09-11T03:23:17.621Z,15.21
2017-09-11T03:24:17.924Z,15.17
2017-09-11T03:25:17.908Z,15.17
2017-09-11T03:26:17.899Z,15.13
2017-09-11T03:27:17.562Z,15.17
2017-09-11T03:28:17.548Z,15.26
2017-09-11T03:29:17.536Z,15.17
2017-09-11T03:30:17.535Z,15.12
2017-09-11T03:31:17.514Z,15.21
2017-09-11T03:32:17.819Z,15.19
2017-09-11T03:33:17.480Z,15.13
2017-09-11T03:34:17.479Z,15.19
2017-09-11T03:35:17.134Z,15.15
2017-09-11T03:36:17.441Z,15.12
2017-09-11T03:37:17.751Z,15.13
2017-09-11T03:38:17.417Z,15.15
2017-09-11T03:39:17.087Z,15.15
2017-09-11T03:40:17.391Z,15.15
2017-09-11T03:41:17.372Z,15.11
2017-09-11T03:42:17.362Z,15.08
2017-09-11T03:43:17.028Z,15.06
2017-09-11T03:44:17.654Z,14.83
2017-09-11T03:45:17.337Z,14.75
2017-09-11T03:46:17.655Z,14.67
2017-09-11T03:47:17.611Z,14.6
2017-09-11T03:48:17.286Z,14.53
2017-09-11T03:49:17.266Z,14.49
2017-09-11T03:50:17.331Z,14.38
2017-09-11T03:51:16.915Z,14.39
2017-09-11T03:52:16.936Z,14.35
2017-09-11T03:53:17.220Z,14.28
2017-09-11T03:54:17.196Z,14.27
2017-09-11T03:55:17.202Z,14.25
2017-09-11T03:56:17.174Z,14.28
2017-09-11T03:57:16.833Z,14.27
2017-09-11T03:58:16.820Z,14.12
2017-09-11T03:59:17.453Z,14.17
2017-09-11T04:00:17.113Z,14.1
2017-09-11T04:01:17.431Z,14.09
2017-09-11T04:02:17.091Z,14.16
2017-09-11T04:03:17.069Z,14.07
2017-09-11T04:04:17.378Z,13.98
2017-09-11T04:05:17.368Z,13.94
2017-09-11T04:06:17.386Z,13.95
2017-09-11T04:07:16.697Z,13.95
2017-09-11T04:08:16.993Z,13.91
2017-09-11T04:09:16.669Z,13.88
2017-09-11T04:10:16.980Z,13.83
2017-09-11T04:11:16.633Z,13.81
2017-09-11T04:12:17.294Z,13.81
2017-09-11T04:13:16.929Z,13.87
2017-09-11T04:14:17.235Z,13.81
2017-09-11T04:15:16.579Z,13.79
2017-09-11T04:16:16.898Z,13.77
2017-09-11T04:17:16.548Z,13.83
2017-09-11T04:18:16.542Z,13.8
2017-09-11T04:19:17.168Z,13.74
2017-09-11T04:20:16.824Z,13.77
2017-09-11T04:21:16.808Z,13.74
2017-09-11T04:22:16.793Z,13.87
2017-09-11T04:23:17.301Z,13.79
2017-09-11T04:24:16.768Z,13.74
2017-09-11T04:25:16.753Z,13.84
2017-09-11T04:26:16.412Z,13.77
2017-09-11T04:27:16.733Z,13.79
2017-09-11T04:28:17.071Z,13.87
2017-09-11T04:29:16.698Z,13.84
2017-09-11T04:30:16.998Z,13.67
2017-09-11T04:31:16.663Z,13.73
2017-09-11T04:32:16.654Z,13.69
2017-09-11T04:33:16.953Z,13.67
2017-09-11T04:34:16.303Z,13.71
2017-09-11T04:35:16.926Z,13.71
2017-09-11T04:36:16.589Z,13.87
2017-09-11T04:37:16.611Z,13.77
2017-09-11T04:38:16.559Z,13.84
2017-09-11T04:39:16.868Z,13.74
2017-09-11T04:40:16.862Z,13.81
2017-09-11T04:41:16.851Z,13.84
2017-09-11T04:42:16.507Z,13.84
2017-09-11T04:43:16.814Z,13.8
2017-09-11T04:44:16.794Z,13.79
2017-09-11T04:45:16.826Z,13.83
2017-09-11T04:46:16.791Z,13.74
2017-09-11T04:47:16.457Z,13.87
2017-09-11T04:48:16.739Z,13.83
2017-09-11T04:49:16.720Z,13.87
2017-09-11T04:50:16.387Z,13.84
2017-09-11T04:51:16.691Z,13.71
2017-09-11T04:52:16.041Z,13.73
2017-09-11T04:53:16.342Z,13.73
2017-09-11T04:54:16.329Z,13.69
2017-09-11T04:55:16.325Z,13.87
2017-09-11T04:56:16.618Z,13.87
2017-09-11T04:57:16.281Z,13.73
2017-09-11T04:58:16.602Z,13.83
2017-09-11T04:59:16.577Z,13.88
2017-09-11T05:00:15.916Z,13.87
2017-09-11T05:01:15.912Z,13.79
2017-09-11T05:02:16.544Z,13.88
2017-09-11T05:03:16.224Z,13.76
2017-09-11T05:04:15.872Z,13.79
2017-09-11T05:05:16.496Z,13.83
2017-09-11T05:06:16.161Z,13.88
2017-09-11T05:07:16.149Z,13.83
2017-09-11T05:08:16.132Z,13.79
2017-09-11T05:09:15.792Z,13.95
2017-09-11T05:10:16.092Z,13.89
2017-09-11T05:11:16.084Z,13.8
2017-09-11T05:12:15.742Z,13.83
2017-09-11T05:13:16.049Z,13.87
2017-09-11T05:14:16.368Z,13.79
2017-09-11T05:15:16.365Z,13.91
2017-09-11T05:16:16.329Z,13.88
2017-09-11T05:17:15.675Z,13.83
2017-09-11T05:18:16.304Z,13.96
2017-09-11T05:19:16.280Z,13.95
2017-09-11T05:20:15.951Z,13.94
2017-09-11T05:21:16.256Z,13.92
2017-09-11T05:22:15.924Z,13.94
2017-09-11T05:23:15.924Z,13.95
2017-09-11T05:24:15.895Z,13.88
2017-09-11T05:25:16.203Z,13.96
2017-09-11T05:26:15.864Z,13.88
2017-09-11T05:27:16.169Z,13.94
2017-09-11T05:28:15.829Z,13.88
2017-09-11T05:29:15.506Z,13.77
2017-09-11T05:30:15.816Z,13.95
2017-09-11T05:31:16.112Z,13.77
2017-09-11T05:32:15.454Z,13.81
2017-09-11T05:33:15.444Z,13.83
2017-09-11T05:34:16.064Z,13.81
2017-09-11T05:35:15.751Z,13.83
2017-09-11T05:36:16.069Z,13.77
2017-09-11T05:37:15.702Z,13.81
2017-09-11T05:38:15.364Z,13.77
2017-09-11T05:39:15.991Z,13.91
2017-09-11T05:40:15.661Z,13.84
2017-09-11T05:41:15.959Z,13.74
2017-09-11T05:42:15.946Z,13.87
2017-09-11T05:43:15.615Z,13.88
2017-09-11T05:44:15.600Z,13.87
2017-09-11T05:45:15.586Z,13.89
2017-09-11T05:46:15.572Z,13.87
2017-09-11T05:47:15.890Z,13.87
2017-09-11T05:48:15.542Z,13.88
2017-09-11T05:49:15.203Z,13.79
2017-09-11T05:50:15.242Z,13.83
2017-09-11T05:51:15.176Z,13.88
2017-09-11T05:52:15.804Z,13.81
2017-09-11T05:53:15.794Z,13.8
2017-09-11T05:54:15.457Z,13.88
2017-09-11T05:55:15.121Z,13.88
2017-09-11T05:56:15.745Z,13.95
2017-09-11T05:57:15.409Z,13.92
2017-09-11T05:58:15.393Z,13.89
2017-09-11T05:59:15.381Z,13.91
2017-09-11T06:00:15.369Z,13.84
2017-09-11T06:01:15.358Z,13.89
2017-09-11T06:02:15.692Z,13.99
2017-09-11T06:03:15.650Z,13.99
2017-09-11T06:04:15.020Z,13.96
2017-09-11T06:05:14.973Z,13.99
2017-09-11T06:06:14.962Z,13.92
2017-09-11T06:07:15.270Z,13.92
2017-09-11T06:08:15.582Z,13.92
2017-09-11T06:09:15.237Z,13.96
2017-09-11T06:10:15.554Z,13.96
2017-09-11T06:11:14.896Z,13.94
2017-09-11T06:12:14.878Z,13.89
2017-09-11T06:13:15.506Z,13.92
2017-09-11T06:14:15.181Z,13.89
2017-09-11T06:15:15.160Z,13.94
2017-09-11T06:16:14.823Z,13.94
2017-09-11T06:17:14.804Z,13.92
2017-09-11T06:18:15.439Z,13.89
2017-09-11T06:19:14.784Z,13.95
2017-09-11T06:20:15.418Z,13.94
2017-09-11T06:21:14.754Z,13.94
2017-09-11T06:22:15.376Z,14.01
2017-09-11T06:23:16.006Z,14.06
2017-09-11T06:24:15.034Z,14.1
2017-09-11T06:25:15.337Z,14.07
2017-09-11T06:26:15.003Z,14.06
2017-09-11T06:27:14.665Z,14.02
2017-09-11T06:28:14.981Z,14.1
2017-09-11T06:29:14.966Z,14.28
2017-09-11T06:30:14.942Z,14.28
2017-09-11T06:31:14.619Z,14.29
2017-09-11T06:32:14.916Z,14.2
2017-09-11T06:33:14.899Z,14.29
2017-09-11T06:34:14.885Z,14.29
2017-09-11T06:35:15.199Z,14.25
2017-09-11T06:36:14.537Z,14.29
2017-09-11T06:37:14.851Z,14.34
2017-09-11T06:38:15.153Z,14.38
2017-09-11T06:39:15.147Z,14.37
2017-09-11T06:40:14.804Z,14.39
2017-09-11T06:41:15.107Z,14.52
2017-09-11T06:42:14.779Z,14.47
2017-09-11T06:43:14.760Z,14.42
2017-09-11T06:44:14.428Z,14.44
2017-09-11T06:45:15.059Z,14.44
2017-09-11T06:46:14.730Z,14.43
2017-09-11T06:47:15.033Z,14.5
2017-09-11T06:48:15.036Z,14.43
2017-09-11T06:49:15.004Z,14.52
2017-09-11T06:50:14.676Z,14.52
2017-09-11T06:51:14.655Z,14.52
2017-09-11T06:52:14.319Z,14.43
2017-09-11T06:53:14.632Z,14.49
2017-09-11T06:54:14.609Z,14.49
2017-09-11T06:55:14.282Z,14.47
2017-09-11T06:56:14.599Z,14.5
2017-09-11T06:57:14.570Z,14.52
2017-09-11T06:58:14.560Z,14.57
2017-09-11T06:59:14.548Z,14.47
2017-09-11T07:00:14.536Z,14.49
2017-09-11T07:01:14.844Z,14.54
2017-09-11T07:02:14.509Z,14.54
2017-09-11T07:03:14.490Z,14.56
2017-09-11T07:04:14.835Z,14.54
2017-09-11T07:05:14.464Z,14.6
2017-09-11T07:06:14.450Z,14.6
2017-09-11T07:07:14.114Z,14.6
2017-09-11T07:08:14.427Z,14.52
2017-09-11T07:09:14.087Z,14.6
2017-09-11T07:10:14.079Z,14.56
2017-09-11T07:11:14.708Z,14.62
2017-09-11T07:12:14.373Z,14.52
2017-09-11T07:13:14.672Z,14.64
2017-09-11T07:14:14.664Z,14.68
2017-09-11T07:15:14.332Z,14.67
2017-09-11T07:16:13.994Z,14.69
2017-09-11T07:17:14.303Z,14.68
2017-09-11T07:18:14.615Z,14.67
2017-09-11T07:19:14.277Z,14.69
2017-09-11T07:20:14.265Z,14.68
2017-09-11T07:21:14.257Z,14.67
2017-09-11T07:22:14.230Z,14.68
2017-09-11T07:23:13.897Z,14.69
2017-09-11T07:24:14.532Z,14.74
2017-09-11T07:25:14.523Z,14.75
2017-09-11T07:26:13.869Z,14.72
2017-09-11T07:27:14.165Z,14.75
2017-09-11T07:28:14.160Z,14.8
2017-09-11T07:29:14.460Z,14.86
2017-09-11T07:30:14.125Z,14.81
2017-09-11T07:31:14.110Z,14.93
2017-09-11T07:32:13.774Z,15.03
2017-09-11T07:33:14.420Z,14.95
2017-09-11T07:34:14.072Z,15.02
2017-09-11T07:35:14.062Z,15.05
2017-09-11T07:36:14.046Z,14.95
2017-09-11T07:37:14.356Z,15.03
2017-09-11T07:38:14.336Z,15.09
2017-09-11T07:39:14.003Z,15.12
2017-09-11T07:40:13.990Z,15.11
2017-09-11T07:41:14.299Z,15.2
2017-09-11T07:42:13.967Z,15.26
2017-09-11T07:43:14.272Z,15.21
2017-09-11T07:44:13.938Z,15.21
2017-09-11T07:45:14.244Z,15.27
2017-09-11T07:46:14.234Z,15.21
2017-09-11T07:47:14.233Z,15.3
2017-09-11T07:48:13.568Z,15.23
2017-09-11T07:49:13.884Z,15.31
2017-09-11T07:50:13.869Z,15.28
2017-09-11T07:51:14.168Z,15.24
2017-09-11T07:52:13.837Z,15.26
2017-09-11T07:53:13.825Z,15.23
2017-09-11T07:54:13.817Z,15.26
2017-09-11T07:55:14.115Z,15.23
2017-09-11T07:56:14.135Z,15.21
2017-09-11T07:57:13.772Z,15.2
2017-09-11T07:58:14.078Z,15.19
2017-09-11T07:59:14.073Z,15.28
2017-09-11T08:00:13.737Z,15.21
2017-09-11T08:01:14.047Z,15.27
2017-09-11T08:02:13.711Z,15.26
2017-09-11T08:03:14.013Z,15.3
2017-09-11T08:04:13.681Z,15.33
2017-09-11T08:05:13.995Z,15.33
2017-09-11T08:06:13.983Z,15.36
2017-09-11T08:07:13.319Z,15.36
2017-09-11T08:08:13.314Z,15.46
2017-09-11T08:09:13.940Z,15.45
2017-09-11T08:10:13.922Z,15.51
2017-09-11T08:11:13.606Z,15.59
2017-09-11T08:12:13.900Z,16.09
2017-09-11T08:13:13.562Z,16.31
2017-09-11T08:14:13.549Z,16.16
2017-09-11T08:15:13.869Z,16.15
2017-09-11T08:16:13.205Z,16.04
2017-09-11T08:17:13.508Z,16.07
2017-09-11T08:18:13.822Z,16.07
2017-09-11T08:19:13.488Z,16.49
2017-09-11T08:20:13.471Z,17.06
2017-09-11T08:21:13.146Z,17.03
2017-09-11T08:22:13.450Z,17.36
2017-09-11T08:23:13.441Z,17.46
2017-09-11T08:24:13.747Z,17.36
2017-09-11T08:25:13.419Z,17.1
2017-09-11T08:26:13.411Z,16.75
2017-09-11T08:27:13.390Z,16.7
2017-09-11T08:28:13.385Z,16.58
2017-09-11T08:29:13.381Z,16.48
2017-09-11T08:30:13.677Z,16.34
2017-09-11T08:31:13.341Z,16.34
2017-09-11T08:32:13.007Z,16.3
2017-09-11T08:33:13.674Z,16.23
2017-09-11T08:34:13.300Z,16.2
2017-09-11T08:35:13.291Z,16.22
2017-09-11T08:36:13.279Z,16.12
2017-09-11T08:37:12.947Z,16.12
2017-09-11T08:38:12.932Z,16.14
2017-09-11T08:39:13.238Z,16.11
2017-09-11T08:40:13.229Z,16.14
2017-09-11T08:41:13.224Z,16.14
2017-09-11T08:42:13.207Z,16.06
2017-09-11T08:43:13.536Z,16.11
2017-09-11T08:44:13.209Z,16.04
2017-09-11T08:45:12.851Z,16.15
2017-09-11T08:46:13.489Z,16.12
2017-09-11T08:47:13.148Z,16.2
2017-09-11T08:48:13.451Z,16.18
2017-09-11T08:49:13.122Z,16.14
2017-09-11T08:50:13.435Z,16.18
2017-09-11T08:51:12.782Z,16.16
2017-09-11T08:52:13.090Z,16.26
2017-09-11T08:53:13.396Z,16.33
2017-09-11T08:54:13.064Z,16.42
2017-09-11T08:55:13.372Z,16.37
2017-09-11T08:56:12.721Z,16.4
2017-09-11T08:57:12.705Z,16.35
2017-09-11T08:58:13.339Z,16.3
2017-09-11T08:59:13.009Z,16.31
2017-09-11T09:00:12.990Z,16.26
2017-09-11T09:01:12.971Z,16.31
2017-09-11T09:02:13.287Z,16.33
2017-09-11T09:03:12.957Z,16.31
2017-09-11T09:04:12.946Z,16.34
2017-09-11T09:05:12.606Z,16.34
2017-09-11T09:06:12.917Z,16.49
2017-09-11T09:07:12.906Z,16.55
2017-09-11T09:08:12.895Z,16.6
2017-09-11T09:09:12.882Z,16.73
2017-09-11T09:10:12.877Z,16.71
2017-09-11T09:11:12.528Z,16.73
2017-09-11T09:12:13.168Z,16.78
2017-09-11T09:13:12.837Z,16.78
2017-09-11T09:14:12.501Z,16.88
2017-09-11T09:15:12.488Z,16.93
2017-09-11T09:16:12.801Z,17.03
2017-09-11T09:17:12.786Z,17.13
2017-09-11T09:18:12.770Z,17.2
2017-09-11T09:19:13.088Z,17.26
2017-09-11T09:20:13.075Z,17.28
2017-09-11T09:21:12.740Z,17.33
2017-09-11T09:22:12.730Z,17.29
2017-09-11T09:23:13.040Z,17.32
2017-09-11T09:24:13.027Z,17.4
2017-09-11T09:25:12.372Z,17.36
2017-09-11T09:26:12.687Z,17.29
2017-09-11T09:27:12.354Z,17.32
2017-09-11T09:28:12.651Z,17.4
2017-09-11T09:29:12.651Z,17.46
2017-09-11T09:30:12.326Z,17.43
2017-09-11T09:31:12.970Z,17.51
2017-09-11T09:32:12.935Z,17.66
2017-09-11T09:33:12.605Z,17.54
2017-09-11T09:34:12.595Z,17.57
2017-09-11T09:35:12.260Z,17.48
2017-09-11T09:36:12.572Z,17.48
2017-09-11T09:37:12.568Z,17.44
2017-09-11T09:38:12.229Z,17.36
2017-09-11T09:39:12.857Z,17.25
2017-09-11T09:40:12.204Z,17.13
2017-09-11T09:41:12.833Z,17.03
2017-09-11T09:42:12.508Z,16.99
2017-09-11T09:43:12.494Z,16.86
2017-09-11T09:44:12.158Z,16.89
2017-09-11T09:45:12.478Z,16.71
2017-09-11T09:46:12.779Z,16.73
2017-09-11T09:47:12.450Z,16.74
2017-09-11T09:48:12.437Z,16.85
2017-09-11T09:49:12.104Z,16.75
2017-09-11T09:50:12.411Z,16.8
2017-09-11T09:51:12.082Z,16.78
2017-09-11T09:52:12.388Z,16.83
2017-09-11T09:53:12.381Z,16.98
2017-09-11T09:54:12.363Z,17.1
2017-09-11T09:55:12.351Z,17.13
2017-09-11T09:56:12.353Z,17.22
2017-09-11T09:57:12.652Z,17.18
2017-09-11T09:58:12.000Z,17.29
2017-09-11T09:59:12.634Z,17.32
2017-09-11T10:00:12.644Z,17.32
2017-09-11T10:01:12.283Z,17.26
2017-09-11T10:02:12.279Z,17.18
2017-09-11T10:03:12.260Z,17.13
2017-09-11T10:04:11.934Z,17.07
2017-09-11T10:05:12.252Z,17.14
2017-09-11T10:06:11.921Z,17.08
2017-09-11T10:07:11.901Z,17.13
2017-09-11T10:08:12.209Z,17.06
2017-09-11T10:09:12.195Z,17.03
2017-09-11T10:10:12.188Z,16.92
2017-09-11T10:11:12.511Z,16.93
2017-09-11T10:12:12.170Z,16.99
2017-09-11T10:13:12.155Z,16.95
2017-09-11T10:14:11.817Z,16.92
2017-09-11T10:15:12.449Z,17.07
2017-09-11T10:16:12.119Z,17.08
2017-09-11T10:17:12.432Z,17
2017-09-11T10:18:12.091Z,17
2017-09-11T10:19:12.404Z,17.07
2017-09-11T10:20:12.077Z,17
2017-09-11T10:21:11.733Z,17.06
2017-09-11T10:22:12.047Z,16.96
2017-09-11T10:23:12.033Z,16.92
2017-09-11T10:24:11.905Z,16.96
2017-09-11T10:25:12.013Z,16.96
2017-09-11T10:26:12.319Z,16.88
2017-09-11T10:27:11.987Z,16.89
2017-09-11T10:28:12.297Z,16.85
2017-09-11T10:29:12.281Z,16.81
2017-09-11T10:30:11.956Z,16.86
2017-09-11T10:31:12.261Z,16.98
2017-09-11T10:32:11.931Z,17.08
2017-09-11T10:33:12.253Z,17.1
2017-09-11T10:34:11.911Z,17.23
2017-09-11T10:35:12.221Z,17.32
2017-09-11T10:36:12.215Z,17.38
2017-09-11T10:37:11.873Z,17.38
2017-09-11T10:38:11.872Z,17.32
2017-09-11T10:39:12.170Z,17.36
2017-09-11T10:40:12.165Z,17.38
2017-09-11T10:41:11.834Z,17.48
2017-09-11T10:42:11.819Z,17.5
2017-09-11T10:43:12.133Z,17.4
2017-09-11T10:44:11.477Z,17.33
2017-09-11T10:45:11.784Z,17.33
2017-09-11T10:46:12.100Z,17.28
2017-09-11T10:47:12.084Z,17.26
2017-09-11T10:48:11.749Z,17.2
2017-09-11T10:49:12.077Z,17.11
2017-09-11T10:50:11.407Z,17.08
2017-09-11T10:51:12.044Z,17.13
2017-09-11T10:52:12.032Z,16.88
2017-09-11T10:53:12.020Z,16.85
2017-09-11T10:54:11.688Z,16.73
2017-09-11T10:55:12.007Z,16.56
2017-09-11T10:56:11.664Z,16.35
2017-09-11T10:57:11.983Z,16.14
2017-09-11T10:58:11.969Z,15.93
2017-09-11T10:59:11.309Z,15.72
2017-09-11T11:00:11.944Z,15.54
2017-09-11T11:01:11.938Z,15.49
2017-09-11T11:02:11.930Z,15.43
2017-09-11T11:03:11.584Z,15.33
2017-09-11T11:04:11.577Z,15.26
2017-09-11T11:05:11.560Z,15.2
2017-09-11T11:06:11.882Z,15.03
2017-09-11T11:07:11.532Z,14.98
2017-09-11T11:08:11.203Z,14.91
2017-09-11T11:09:11.518Z,14.84
2017-09-11T11:10:11.819Z,14.78
2017-09-11T11:11:11.197Z,14.78
2017-09-11T11:12:11.467Z,14.78
2017-09-11T11:13:11.785Z,14.91
2017-09-11T11:14:11.448Z,15.09
2017-09-11T11:15:11.430Z,15.27
2017-09-11T11:16:11.418Z,15.59
2017-09-11T11:17:11.755Z,15.6
2017-09-11T11:18:11.395Z,15.67
2017-09-11T11:19:11.703Z,15.99
2017-09-11T11:20:11.369Z,16.41
2017-09-11T11:21:11.358Z,16.8
2017-09-11T11:22:11.355Z,17.2
2017-09-11T11:23:11.359Z,17.66
2017-09-11T11:24:11.012Z,17.64
2017-09-11T11:25:11.339Z,17.54
2017-09-11T11:26:11.317Z,17.66
2017-09-11T11:27:10.983Z,17.87
2017-09-11T11:28:11.296Z,17.88
2017-09-11T11:29:11.287Z,18.07
2017-09-11T11:30:10.962Z,18.29
2017-09-11T11:31:11.615Z,18.43
2017-09-11T11:32:11.289Z,18.54
2017-09-11T11:33:11.266Z,18.79
2017-09-11T11:34:11.263Z,19.11
2017-09-11T11:35:11.574Z,19.05
2017-09-11T11:36:11.255Z,18.9
2017-09-11T11:37:11.253Z,18.86
2017-09-11T11:38:11.552Z,19.33
2017-09-11T11:39:11.227Z,19.32
2017-09-11T11:40:11.547Z,19.13
2017-09-11T11:41:11.548Z,19.06
2017-09-11T11:42:11.212Z,18.8
2017-09-11T11:43:11.219Z,18.87
2017-09-11T11:44:11.204Z,18.82
2017-09-11T11:45:10.917Z,18.79
2017-09-11T11:46:11.196Z,18.79
2017-09-11T11:47:11.194Z,19.31
2017-09-11T11:48:11.188Z,19.57
2017-09-11T11:49:11.504Z,19.42
2017-09-11T11:50:11.492Z,19.7
2017-09-11T11:51:11.200Z,19.51
2017-09-11T11:52:11.165Z,19.24
2017-09-11T11:53:10.837Z,19.02
2017-09-11T11:54:11.159Z,18.87
2017-09-11T11:55:11.148Z,18.8
2017-09-11T11:56:11.464Z,18.68
2017-09-11T11:57:11.139Z,18.36
2017-09-11T11:58:10.810Z,18.37
2017-09-11T11:59:11.129Z,18.33
2017-09-11T12:00:11.118Z,18.47
2017-09-11T12:01:11.436Z,18.4
2017-09-11T12:02:11.102Z,18.28
2017-09-11T12:03:11.104Z,18.15
2017-09-11T12:04:11.418Z,18.02
2017-09-11T12:05:11.409Z,17.97
2017-09-11T12:06:10.753Z,17.97
2017-09-11T12:07:11.389Z,18.19
2017-09-11T12:08:10.744Z,18.21
2017-09-11T12:09:11.049Z,18.98
2017-09-11T12:10:11.048Z,19.63
2017-09-11T12:11:11.040Z,19.55
2017-09-11T12:12:11.032Z,19.63
2017-09-11T12:13:11.349Z,20.13
2017-09-11T12:14:11.018Z,20.35
2017-09-11T12:15:11.017Z,20.47
2017-09-11T12:16:11.004Z,20.23
2017-09-11T12:17:11.321Z,19.73
2017-09-11T12:18:10.987Z,19.39
2017-09-11T12:19:10.995Z,19.11
2017-09-11T12:20:10.981Z,18.83
2017-09-11T12:21:10.649Z,18.82
2017-09-11T12:22:10.649Z,18.77
2017-09-11T12:23:10.964Z,18.62
2017-09-11T12:24:11.162Z,18.64
2017-09-11T12:25:10.946Z,18.55
2017-09-11T12:26:11.266Z,18.49
2017-09-11T12:27:10.613Z,18.43
2017-09-11T12:28:10.926Z,18.36
2017-09-11T12:29:10.918Z,18.19
2017-09-11T12:30:10.594Z,18.18
2017-09-11T12:31:11.219Z,18.15
2017-09-11T12:32:11.218Z,18
2017-09-11T12:33:10.880Z,17.94
2017-09-11T12:34:10.876Z,18.02
2017-09-11T12:35:10.868Z,17.92
2017-09-11T12:36:11.185Z,17.85
2017-09-11T12:37:10.851Z,17.84
2017-09-11T12:38:10.839Z,17.85
2017-09-11T12:39:11.149Z,18.03
2017-09-11T12:40:11.135Z,18.07
2017-09-11T12:41:10.821Z,18.17
2017-09-11T12:42:11.132Z,18.15
2017-09-11T12:43:11.108Z,18.15
2017-09-11T12:44:10.786Z,18.17
2017-09-11T12:45:10.771Z,18.06
2017-09-11T12:46:11.094Z,18
2017-09-11T12:47:10.751Z,17.91
2017-09-11T12:48:10.747Z,17.95
2017-09-11T12:49:10.730Z,17.84
2017-09-11T12:50:10.719Z,17.88
2017-09-11T12:51:11.037Z,17.74
2017-09-11T12:52:11.023Z,17.74
2017-09-11T12:53:10.695Z,17.76
2017-09-11T12:54:10.678Z,17.82
2017-09-11T12:55:10.678Z,17.74